Time;durP1;ratioP1;P1;durP2;ratioP2;P2;SDS_P1;SDS_P2;PMS_P1;PMS_P2;Temp;Humidity;BMP_temperature;BMP_pressure;BME280_temperature;BME280_humidity;BME280_pressure;Samples;Min_cycle;Max_cycle;Signal;HPM_P1;HPM_P2
2024/01/25 08:46:20;;;;;;;19.02;10.13;;;12.10;81.50;;;;;;5047958;28;20142;-78
2024/01/25 08:48:46;;;;;;;19.20;10.25;;;12.10;80.80;;;;;;5073232;28;20076;-80
2024/01/25 08:51:12;;;;;;;26.85;11.38;;;12.20;80.60;;;;;;5072788;28;20036;-81
2024/01/25 08:53:37;;;;;;;20.75;9.98;;;12.30;80.70;;;;;;5072613;28;20044;-82
2024/01/25 08:56:04;;;;;;;30.58;10.77;;;12.40;80.40;;;;;;5074398;28;20041;-81
2024/01/25 08:58:30;;;;;;;20.77;9.75;;;12.40;80.20;;;;;;5071677;28;20040;-80
2024/01/25 09:00:56;;;;;;;20.25;9.88;;;12.50;80.20;;;;;;5072062;28;20128;-80
2024/01/25 09:03:22;;;;;;;21.40;11.07;;;12.60;80.20;;;;;;5072372;28;20082;-81
2024/01/25 09:05:48;;;;;;;22.50;10.48;;;12.70;80.00;;;;;;5072309;28;20020;-81
2024/01/25 09:08:15;;;;;;;20.67;10.73;;;12.80;79.90;;;;;;5073199;28;20029;-84
2024/01/25 09:10:41;;;;;;;20.52;11.07;;;12.80;79.40;;;;;;5069898;28;20036;-77
2024/01/25 09:13:07;;;;;;;29.40;12.30;;;12.70;79.30;;;;;;5061537;28;20475;-80
2024/01/25 09:15:33;;;;;;;23.50;11.52;;;12.70;79.60;;;;;;5070979;28;20123;-79
2024/01/25 09:17:59;;;;;;;26.80;12.35;;;12.80;80.00;;;;;;5081405;28;20043;-77
2024/01/25 09:20:25;;;;;;;27.35;13.07;;;12.80;79.70;;;;;;5070668;28;20080;-74
2024/01/25 09:22:53;;;;;;;17.92;10.60;;;12.70;79.40;;;;;;5066836;28;20029;-80
2024/01/25 09:25:19;;;;;;;102.53;18.23;;;12.70;79.80;;;;;;5074460;28;20029;-81
2024/01/25 09:27:45;;;;;;;29.63;13.20;;;12.70;79.90;;;;;;5070533;28;20783;-77
2024/01/25 09:30:11;;;;;;;28.30;13.15;;;12.70;80.10;;;;;;5069803;28;20043;-79
2024/01/25 09:32:37;;;;;;;25.48;12.82;;;12.70;80.10;;;;;;5069583;28;20025;-78
2024/01/25 09:35:02;;;;;;;21.25;11.57;;;12.80;80.00;;;;;;5069222;28;20036;-78
2024/01/25 09:37:28;;;;;;;22.40;12.90;;;12.80;79.70;;;;;;5069659;28;20406;-80
2024/01/25 09:39:54;;;;;;;20.85;12.60;;;12.90;79.50;;;;;;5069592;28;20025;-82
2024/01/25 09:42:19;;;;;;;21.67;12.40;;;13.00;79.50;;;;;;5069569;28;20466;-87
2024/01/25 09:44:45;;;;;;;22.73;13.07;;;13.10;79.00;;;;;;5077451;28;20042;-80
2024/01/25 09:47:12;;;;;;;23.60;12.30;;;13.20;78.90;;;;;;5073652;28;21228;-78
2024/01/25 09:49:38;;;;;;;21.90;13.77;;;13.30;79.10;;;;;;5072756;28;20032;-74
2024/01/25 09:52:05;;;;;;;22.67;12.65;;;13.40;78.90;;;;;;5055043;28;20120;-71
2024/01/25 09:54:37;;;;;;;21.23;12.70;;;13.60;78.70;;;;;;5073280;28;20032;-75
2024/01/25 09:57:17;;;;;;;23.02;13.23;;;13.70;78.20;;;;;;5072499;28;20047;-75
2024/01/25 09:59:44;;;;;;;22.98;12.80;;;13.80;77.90;;;;;;5072745;28;20025;-73
2024/01/25 10:02:10;;;;;;;22.05;13.00;;;13.90;77.90;;;;;;5072313;28;20035;-75
2024/01/25 10:04:36;;;;;;;21.13;12.77;;;14.00;77.70;;;;;;5072642;28;20075;-71
2024/01/25 10:07:03;;;;;;;25.13;12.18;;;14.20;77.50;;;;;;5072691;28;20464;-73
2024/01/25 10:09:41;;;;;;;21.38;11.48;;;14.30;77.20;;;;;;5072585;28;20036;-72
2024/01/25 10:12:07;;;;;;;23.20;11.30;;;14.50;77.00;;;;;;5054423;28;20036;-70
2024/01/25 10:14:32;;;;;;;28.02;11.40;;;14.50;76.60;;;;;;5072093;28;20086;-74
2024/01/25 10:16:59;;;;;;;24.58;11.80;;;14.50;76.60;;;;;;5057283;28;20490;-75
2024/01/25 10:19:27;;;;;;;19.25;11.80;;;14.50;76.50;;;;;;5077478;28;20057;-74
2024/01/25 10:21:53;;;;;;;26.02;14.02;;;14.60;76.60;;;;;;5056868;28;20044;-75
2024/01/25 10:24:18;;;;;;;20.08;13.60;;;14.70;76.50;;;;;;5055754;28;20328;-76
2024/01/25 10:26:44;;;;;;;22.15;12.82;;;14.60;76.60;;;;;;5074267;28;20078;-74
2024/01/25 10:29:10;;;;;;;20.13;12.32;;;14.50;76.60;;;;;;5074121;28;20103;-74
2024/01/25 10:31:42;;;;;;;27.23;13.13;;;14.50;76.60;;;;;;5072443;28;20056;-74
2024/01/25 10:34:13;;;;;;;30.90;13.57;;;14.50;76.80;;;;;;5071857;28;20039;-87
2024/01/25 10:36:40;;;;;;;20.35;12.05;;;14.60;76.60;;;;;;5073614;28;20059;-83
2024/01/25 10:39:08;;;;;;;26.63;13.00;;;14.60;76.60;;;;;;5074454;28;20048;-75
2024/01/25 10:41:34;;;;;;;22.67;12.20;;;14.60;76.80;;;;;;5050421;28;20415;-72
2024/01/25 10:44:01;;;;;;;28.35;12.02;;;14.70;77.00;;;;;;5073917;28;20041;-80
2024/01/25 10:46:29;;;;;;;22.60;11.63;;;14.80;77.00;;;;;;5071653;28;20657;-80
2024/01/25 10:48:58;;;;;;;23.23;10.73;;;14.80;76.80;;;;;;5072008;28;20049;-79
2024/01/25 10:51:26;;;;;;;19.00;10.50;;;14.80;76.70;;;;;;5071480;28;20020;-76
2024/01/25 10:53:52;;;;;;;18.80;10.85;;;14.80;76.70;;;;;;5073198;28;20130;-77
2024/01/25 10:56:18;;;;;;;18.45;9.73;;;14.80;77.00;;;;;;5072634;28;20045;-77
2024/01/25 10:58:45;;;;;;;16.58;9.25;;;14.80;77.10;;;;;;5073566;28;20402;-76
2024/01/25 11:01:10;;;;;;;19.42;9.45;;;14.80;76.90;;;;;;5073542;28;20035;-76
2024/01/25 11:03:36;;;;;;;22.02;10.35;;;14.90;76.80;;;;;;5073653;28;20029;-76
2024/01/25 11:06:10;;;;;;;19.98;10.63;;;14.90;76.70;;;;;;5073436;28;20028;-76
2024/01/25 11:08:38;;;;;;;24.20;10.32;;;14.90;76.40;;;;;;5073920;28;20064;-74
2024/01/25 11:11:09;;;;;;;18.73;10.35;;;14.90;76.50;;;;;;5073765;28;20146;-75
2024/01/25 11:13:35;;;;;;;19.98;10.88;;;14.90;76.50;;;;;;5073705;28;20035;-76
2024/01/25 11:16:16;;;;;;;19.52;10.30;;;14.90;76.40;;;;;;5073404;28;20045;-76
2024/01/25 11:18:54;;;;;;;19.80;9.43;;;14.90;76.70;;;;;;5073638;28;20020;-72
2024/01/25 11:21:26;;;;;;;17.77;9.48;;;14.80;76.30;;;;;;5073404;28;20032;-76
2024/01/25 11:24:00;;;;;;;18.48;9.00;;;14.80;76.40;;;;;;5073222;28;20119;-77
2024/01/25 11:26:26;;;;;;;19.60;9.60;;;14.90;76.50;;;;;;5073375;28;20378;-76
2024/01/25 11:28:52;;;;;;;22.15;9.70;;;14.90;76.60;;;;;;5072898;28;20036;-77
2024/01/25 11:31:18;;;;;;;20.73;9.63;;;14.90;76.40;;;;;;5073127;28;20036;-76
2024/01/25 11:33:44;;;;;;;22.50;10.02;;;15.00;76.40;;;;;;5073232;28;20040;-77
2024/01/25 11:36:10;;;;;;;17.67;8.95;;;15.20;76.10;;;;;;5072920;28;20072;-74
2024/01/25 11:38:39;;;;;;;22.60;9.30;;;15.30;76.00;;;;;;5072946;28;20095;-73
2024/01/25 11:41:04;;;;;;;14.50;7.57;;;15.50;75.90;;;;;;5072618;28;20040;-74
2024/01/25 11:43:30;;;;;;;19.83;7.78;;;15.60;75.90;;;;;;5054881;28;20029;-77
2024/01/25 11:45:56;;;;;;;19.30;8.48;;;15.80;75.90;;;;;;5072979;28;20048;-75
2024/01/25 11:48:21;;;;;;;15.88;8.45;;;15.80;75.50;;;;;;5073105;28;20498;-75
2024/01/25 11:50:48;;;;;;;20.30;8.55;;;15.90;75.40;;;;;;5073041;28;20470;-77
2024/01/25 11:53:14;;;;;;;15.73;7.85;;;16.00;75.50;;;;;;5072567;28;20108;-76
2024/01/25 11:55:39;;;;;;;14.35;6.85;;;16.10;75.50;;;;;;5072933;28;20543;-80
2024/01/25 11:58:05;;;;;;;19.98;6.63;;;16.20;75.60;;;;;;5072609;28;20497;-79
2024/01/25 12:00:31;;;;;;;17.48;7.10;;;16.20;75.70;;;;;;5073056;28;20375;-80
2024/01/25 12:02:57;;;;;;;16.05;6.63;;;16.30;75.70;;;;;;5070211;28;20155;-79
2024/01/25 12:05:23;;;;;;;18.63;7.03;;;16.50;75.70;;;;;;5070288;28;20487;-78
2024/01/25 12:07:48;;;;;;;15.35;5.97;;;16.60;75.70;;;;;;5053541;28;20461;-79
2024/01/25 12:10:19;;;;;;;16.20;5.80;;;16.60;75.60;;;;;;5072390;28;20101;-80
2024/01/25 12:12:45;;;;;;;16.90;5.30;;;16.70;75.80;;;;;;5072516;28;20142;-80
2024/01/25 12:15:11;;;;;;;18.55;6.65;;;16.70;75.60;;;;;;5071845;28;20564;-80
2024/01/25 12:17:39;;;;;;;18.40;5.85;;;16.70;75.60;;;;;;5053711;28;20036;-79
2024/01/25 12:20:10;;;;;;;13.73;4.68;;;16.80;75.60;;;;;;5071650;28;20029;-80
2024/01/25 12:22:36;;;;;;;19.00;4.78;;;16.90;75.50;;;;;;5069707;28;20039;-80
2024/01/25 12:25:06;;;;;;;18.13;5.07;;;16.90;75.50;;;;;;5085227;23;20147;-79
2024/01/25 12:27:32;;;;;;;14.85;5.05;;;16.80;75.40;;;;;;5088962;28;20040;-84
2024/01/25 12:29:58;;;;;;;29.38;6.88;;;16.90;75.50;;;;;;5078408;28;20426;-82
2024/01/25 12:32:23;;;;;;;17.08;5.72;;;16.90;75.40;;;;;;5078370;28;20040;-80
2024/01/25 12:34:57;;;;;;;16.95;5.28;;;16.90;75.30;;;;;;5088476;28;20103;-77
2024/01/25 12:37:22;;;;;;;22.40;6.75;;;17.00;75.50;;;;;;5085980;28;20044;-80
2024/01/25 12:39:53;;;;;;;16.05;5.35;;;17.00;75.30;;;;;;5072485;28;20052;-79
2024/01/25 12:42:22;;;;;;;19.23;5.60;;;17.10;75.20;;;;;;5083095;28;20110;-81
2024/01/25 12:44:50;;;;;;;16.85;5.10;;;17.10;74.90;;;;;;5072656;28;20078;-80
2024/01/25 12:47:16;;;;;;;18.90;5.10;;;17.10;74.90;;;;;;5083911;28;20062;-81
2024/01/25 12:49:45;;;;;;;21.77;6.50;;;17.20;74.90;;;;;;5082225;28;20062;-82
2024/01/25 12:52:13;;;;;;;18.52;5.32;;;17.30;74.70;;;;;;5072278;28;20032;-78
2024/01/25 12:54:39;;;;;;;16.50;5.28;;;17.40;75.20;;;;;;5072134;28;20445;-74
2024/01/25 12:57:05;;;;;;;16.10;5.55;;;17.50;74.40;;;;;;5071624;28;20438;-75
2024/01/25 12:59:33;;;;;;;19.40;6.03;;;17.50;74.10;;;;;;5083049;28;20031;-74
2024/01/25 13:01:58;;;;;;;13.13;5.00;;;17.60;74.10;;;;;;5087205;28;20043;-73
2024/01/25 13:04:24;;;;;;;13.35;5.10;;;17.60;73.80;;;;;;5081675;28;20138;-75
2024/01/25 13:06:54;;;;;;;15.75;5.40;;;17.50;73.70;;;;;;5091301;28;20032;-76
2024/01/25 13:09:20;;;;;;;15.27;5.40;;;17.50;73.80;;;;;;5091545;28;20020;-74
2024/01/25 13:11:46;;;;;;;12.25;5.03;;;17.50;73.90;;;;;;5091315;28;20031;-74
2024/01/25 13:14:12;;;;;;;19.85;5.90;;;17.50;73.70;;;;;;5090288;28;20366;-75
2024/01/25 13:16:38;;;;;;;23.10;5.80;;;17.50;73.60;;;;;;5091519;28;20051;-74
2024/01/25 13:19:04;;;;;;;14.65;4.90;;;17.50;73.60;;;;;;5093566;28;20043;-75
2024/01/25 13:21:31;;;;;;;14.52;4.80;;;17.60;73.70;;;;;;5085728;28;20040;-75
2024/01/25 13:23:56;;;;;;;15.70;5.18;;;17.50;73.60;;;;;;5086532;28;20036;-76
2024/01/25 13:26:22;;;;;;;16.15;6.47;;;17.50;73.60;;;;;;5092271;28;20055;-76
2024/01/25 13:28:48;;;;;;;16.42;5.03;;;17.50;73.60;;;;;;5091518;28;20036;-75
2024/01/25 13:31:14;;;;;;;16.02;5.50;;;17.40;73.50;;;;;;5094682;28;20102;-73
2024/01/25 13:33:39;;;;;;;14.90;5.78;;;17.50;73.70;;;;;;5086014;28;20058;-74
2024/01/25 13:36:08;;;;;;;18.88;5.85;;;17.60;73.50;;;;;;5083003;28;20401;-73
2024/01/25 13:38:34;;;;;;;16.48;4.43;;;17.70;73.40;;;;;;5089312;28;20385;-75
2024/01/25 13:41:00;;;;;;;17.17;4.80;;;17.60;72.90;;;;;;5095972;28;20429;-76
2024/01/25 13:43:27;;;;;;;13.23;3.60;;;17.60;73.30;;;;;;5095513;28;20032;-74
2024/01/25 13:45:54;;;;;;;15.93;3.90;;;17.70;73.20;;;;;;5095508;28;20028;-74
2024/01/25 13:48:19;;;;;;;12.38;4.78;;;17.70;73.00;;;;;;5095470;28;20381;-75
2024/01/25 13:50:45;;;;;;;16.42;4.93;;;17.80;72.90;;;;;;5095128;28;20032;-74
2024/01/25 13:53:10;;;;;;;14.10;4.32;;;17.80;72.70;;;;;;5095353;28;20435;-75
2024/01/25 13:55:36;;;;;;;16.85;4.72;;;17.80;72.70;;;;;;5095462;28;20039;-75
2024/01/25 13:58:03;;;;;;;15.07;4.25;;;17.80;72.80;;;;;;5095729;28;20393;-75
2024/01/25 14:00:29;;;;;;;19.30;4.85;;;17.90;72.80;;;;;;5094870;28;20047;-75
2024/01/25 14:02:55;;;;;;;16.08;3.83;;;18.00;72.70;;;;;;5095526;28;20025;-76
2024/01/25 14:05:20;;;;;;;18.20;5.00;;;17.90;72.40;;;;;;5095173;28;20051;-75
2024/01/25 14:07:46;;;;;;;18.63;4.53;;;17.90;72.60;;;;;;5095187;28;20089;-75
2024/01/25 14:10:12;;;;;;;13.95;4.00;;;17.90;72.40;;;;;;5094957;28;20146;-72
2024/01/25 14:12:38;;;;;;;12.93;4.10;;;17.90;72.60;;;;;;5095158;28;20107;-74
2024/01/25 14:15:04;;;;;;;12.63;3.25;;;17.90;72.70;;;;;;5094985;28;20528;-75
2024/01/25 14:17:30;;;;;;;12.63;3.47;;;17.90;72.50;;;;;;5094915;28;20050;-74
2024/01/25 14:19:56;;;;;;;16.50;4.47;;;17.90;72.40;;;;;;5094708;28;20338;-74
2024/01/25 14:22:22;;;;;;;11.90;3.30;;;17.90;72.40;;;;;;5076818;28;20083;-75
2024/01/25 14:24:48;;;;;;;20.27;4.70;;;17.90;72.00;;;;;;5094658;28;20094;-74
2024/01/25 14:27:13;;;;;;;18.00;4.13;;;18.00;72.10;;;;;;5094819;28;20063;-75
2024/01/25 14:29:41;;;;;;;12.80;3.80;;;18.00;72.00;;;;;;5076182;28;20055;-75
2024/01/25 14:32:08;;;;;;;13.60;4.20;;;17.90;72.10;;;;;;5094877;28;20036;-75
2024/01/25 14:34:33;;;;;;;14.73;4.47;;;17.80;72.20;;;;;;5094783;28;20558;-74
2024/01/25 14:36:59;;;;;;;12.27;4.32;;;17.90;71.90;;;;;;5094931;28;20048;-75
2024/01/25 14:39:25;;;;;;;13.57;4.72;;;17.80;71.80;;;;;;5094269;28;20025;-74
2024/01/25 14:41:53;;;;;;;14.02;5.10;;;17.80;71.80;;;;;;5076123;28;20123;-75
2024/01/25 14:44:20;;;;;;;13.57;4.97;;;17.80;71.90;;;;;;5095174;28;20073;-74
2024/01/25 14:46:46;;;;;;;14.25;4.85;;;17.70;71.90;;;;;;5091638;28;20032;-75
2024/01/25 14:49:11;;;;;;;19.90;5.43;;;17.80;71.80;;;;;;5085497;28;20058;-76
2024/01/25 14:51:37;;;;;;;15.63;5.68;;;17.80;72.00;;;;;;5092587;28;20074;-75
2024/01/25 14:54:03;;;;;;;13.73;5.93;;;17.70;71.80;;;;;;5094122;28;20032;-73
2024/01/25 14:56:29;;;;;;;18.33;6.05;;;17.70;72.00;;;;;;5093604;28;20101;-75
2024/01/25 14:58:55;;;;;;;14.88;5.95;;;17.60;72.00;;;;;;5093739;28;20024;-75
2024/01/25 15:01:27;;;;;;;22.70;6.38;;;17.60;72.20;;;;;;5091772;28;20481;-73
2024/01/25 15:03:54;;;;;;;18.30;6.70;;;17.50;72.20;;;;;;5075334;28;20032;-74
2024/01/25 15:06:20;;;;;;;16.83;6.47;;;17.50;72.30;;;;;;5092810;28;20027;-75
2024/01/25 15:08:46;;;;;;;17.33;6.30;;;17.40;72.20;;;;;;5092613;28;20074;-76
2024/01/25 15:11:12;;;;;;;14.48;6.05;;;17.30;72.40;;;;;;5093791;28;20115;-75
2024/01/25 15:13:38;;;;;;;14.05;5.97;;;17.30;72.50;;;;;;5075552;28;20028;-74
2024/01/25 15:16:04;;;;;;;15.90;6.20;;;17.30;72.70;;;;;;5075760;28;20128;-74
2024/01/25 15:18:30;;;;;;;14.50;6.50;;;17.20;72.70;;;;;;5093964;28;20553;-75
2024/01/25 15:20:56;;;;;;;18.90;6.60;;;17.30;72.80;;;;;;5093885;28;20047;-77
2024/01/25 15:23:22;;;;;;;19.38;6.47;;;17.30;72.80;;;;;;5075190;28;20052;-77
2024/01/25 15:25:49;;;;;;;16.48;6.43;;;17.20;72.70;;;;;;5093492;28;20087;-73
2024/01/25 15:28:15;;;;;;;15.40;5.80;;;17.20;72.80;;;;;;5074891;28;20028;-74
2024/01/25 15:30:41;;;;;;;16.75;6.63;;;17.10;73.10;;;;;;5093528;28;20386;-75
2024/01/25 15:33:07;;;;;;;15.70;6.40;;;17.00;73.30;;;;;;5075212;28;20557;-76
2024/01/25 15:35:33;;;;;;;17.88;7.00;;;16.90;73.30;;;;;;5093562;28;20397;-76
2024/01/25 15:38:05;;;;;;;16.00;6.65;;;16.90;73.50;;;;;;5075630;28;20043;-73
2024/01/25 15:40:31;;;;;;;15.35;5.95;;;16.90;73.60;;;;;;5093089;28;20547;-74
2024/01/25 15:42:57;;;;;;;14.40;6.07;;;16.80;73.60;;;;;;5092409;28;20078;-75
2024/01/25 15:45:23;;;;;;;19.13;6.00;;;16.80;73.80;;;;;;5092249;28;20120;-74
2024/01/25 15:47:48;;;;;;;39.10;24.10;;;16.70;73.90;;;;;;5073549;28;20039;-76
2024/01/25 15:50:15;;;;;;;16.65;7.75;;;16.70;74.10;;;;;;5088691;28;20036;-75
2024/01/25 15:52:43;;;;;;;21.33;8.20;;;16.60;74.10;;;;;;5072516;28;20028;-75
2024/01/25 15:55:09;;;;;;;18.15;6.93;;;16.60;74.30;;;;;;5072943;28;20041;-76
2024/01/25 15:57:35;;;;;;;12.25;5.45;;;16.60;74.40;;;;;;5072603;28;20383;-75
2024/01/25 16:00:00;;;;;;;15.70;6.00;;;16.50;74.20;;;;;;5075346;28;20165;-74
2024/01/25 16:02:27;;;;;;;17.50;5.72;;;16.50;74.50;;;;;;5080394;28;20064;-76
2024/01/25 16:04:52;;;;;;;12.18;5.72;;;16.40;74.70;;;;;;5070732;28;20032;-75
2024/01/25 16:07:19;;;;;;;15.38;6.25;;;16.30;74.70;;;;;;5071566;28;20055;-73
2024/01/25 16:09:46;;;;;;;15.10;6.50;;;16.30;74.90;;;;;;5054274;28;20119;-76
2024/01/25 16:12:12;;;;;;;20.15;6.88;;;16.20;75.10;;;;;;5053428;28;20068;-74
2024/01/25 16:14:37;;;;;;;24.48;7.22;;;16.20;75.20;;;;;;5071729;28;20570;-74
2024/01/25 16:17:04;;;;;;;20.40;7.20;;;16.10;75.30;;;;;;5054203;28;20040;-74
2024/01/25 16:19:30;;;;;;;18.10;7.18;;;16.10;75.60;;;;;;5072196;28;20501;-72
2024/01/25 16:21:55;;;;;;;20.25;7.32;;;16.00;75.70;;;;;;5072299;28;20123;-74
2024/01/25 16:24:21;;;;;;;19.13;6.70;;;15.90;75.70;;;;;;5071941;28;20024;-74
2024/01/25 16:26:47;;;;;;;18.33;6.80;;;15.90;76.00;;;;;;5072234;28;20078;-73
2024/01/25 16:29:13;;;;;;;18.55;7.45;;;15.90;76.10;;;;;;5074783;28;20437;-75
2024/01/25 16:31:39;;;;;;;27.02;9.93;;;15.80;76.20;;;;;;5086125;28;20370;-76
2024/01/25 16:34:04;;;;;;;18.25;7.75;;;15.80;76.30;;;;;;5079154;28;20486;-75
2024/01/25 16:36:31;;;;;;;18.25;6.78;;;15.80;76.40;;;;;;5071843;28;20074;-76
2024/01/25 16:38:57;;;;;;;17.80;6.72;;;15.70;76.40;;;;;;5072470;28;20025;-75
2024/01/25 16:41:22;;;;;;;17.88;7.28;;;15.70;76.40;;;;;;5072206;28;20036;-75
2024/01/25 16:43:48;;;;;;;16.25;7.30;;;15.60;76.40;;;;;;5071700;28;20139;-75
2024/01/25 16:46:14;;;;;;;18.67;7.03;;;15.60;76.60;;;;;;5084421;28;20193;-74
2024/01/25 16:48:40;;;;;;;17.73;6.35;;;15.60;76.60;;;;;;5075354;28;20108;-75
2024/01/25 16:51:06;;;;;;;18.92;6.88;;;15.50;76.60;;;;;;5067293;28;20046;-77
2024/01/25 16:53:32;;;;;;;14.23;6.32;;;15.40;76.80;;;;;;5086613;28;20043;-79
2024/01/25 16:55:58;;;;;;;14.95;7.38;;;15.40;77.00;;;;;;5070125;28;20048;-76
2024/01/25 16:58:24;;;;;;;19.90;9.23;;;15.40;77.00;;;;;;5097056;28;20032;-74
2024/01/25 17:00:51;;;;;;;20.38;9.57;;;15.30;77.20;;;;;;5095798;28;20481;-75
2024/01/25 17:03:17;;;;;;;22.10;9.63;;;15.30;77.60;;;;;;5086844;28;20064;-77
2024/01/25 17:05:43;;;;;;;22.33;9.10;;;15.30;78.10;;;;;;5058022;28;20405;-79
2024/01/25 17:08:08;;;;;;;19.65;8.93;;;15.20;78.40;;;;;;5097664;28;20036;-79
2024/01/25 17:10:34;;;;;;;23.95;9.30;;;15.20;78.90;;;;;;5096002;28;20132;-77
2024/01/25 17:13:00;;;;;;;26.48;8.63;;;15.10;79.10;;;;;;5089498;28;20445;-75
2024/01/25 17:15:26;;;;;;;21.38;8.50;;;15.10;79.70;;;;;;5083902;28;20097;-76
2024/01/25 17:17:52;;;;;;;20.92;8.57;;;15.10;79.90;;;;;;5086190;28;20044;-77
2024/01/25 17:20:17;;;;;;;20.13;8.02;;;15.00;80.10;;;;;;5093318;28;20032;-74
2024/01/25 17:22:44;;;;;;;22.92;9.07;;;15.00;81.00;;;;;;5075396;28;20039;-78
2024/01/25 17:25:09;;;;;;;27.85;9.50;;;15.00;80.60;;;;;;5075445;28;20143;-77
2024/01/25 17:27:35;;;;;;;35.92;9.07;;;14.90;80.90;;;;;;5057791;28;20067;-78
2024/01/25 17:30:01;;;;;;;23.52;9.48;;;14.90;81.20;;;;;;5063693;28;20044;-75
2024/01/25 17:32:27;;;;;;;25.65;9.07;;;14.90;81.40;;;;;;5093153;28;20039;-80
2024/01/25 17:34:55;;;;;;;24.42;9.40;;;14.80;81.50;;;;;;5095259;28;20424;-76
2024/01/25 17:37:21;;;;;;;26.70;9.52;;;14.80;82.00;;;;;;5095652;28;20441;-81
2024/01/25 17:39:46;;;;;;;23.25;9.98;;;14.70;82.20;;;;;;5095868;28;20128;-80
2024/01/25 17:42:12;;;;;;;26.63;9.90;;;14.70;82.60;;;;;;5077547;28;20027;-82
2024/01/25 17:44:38;;;;;;;24.83;9.90;;;14.80;82.80;;;;;;5090047;28;20081;-79
2024/01/25 17:47:05;;;;;;;29.45;9.85;;;14.70;82.90;;;;;;5081971;28;20033;-79
2024/01/25 17:49:30;;;;;;;24.48;10.30;;;14.70;83.20;;;;;;5087518;28;20533;-79
2024/01/25 17:51:56;;;;;;;26.90;9.68;;;14.80;83.50;;;;;;5084110;28;20035;-79
2024/01/25 17:54:22;;;;;;;24.20;8.00;;;14.70;83.50;;;;;;5084530;28;20040;-78
2024/01/25 17:56:48;;;;;;;27.42;9.57;;;14.70;83.30;;;;;;5080838;28;20070;-79
2024/01/25 17:59:13;;;;;;;23.45;9.68;;;14.60;83.20;;;;;;5082363;28;20029;-78
2024/01/25 18:01:39;;;;;;;25.58;9.32;;;14.60;83.20;;;;;;5088533;28;20035;-78
2024/01/25 18:04:05;;;;;;;28.17;10.68;;;14.60;83.40;;;;;;5095293;28;20032;-79
2024/01/25 18:06:31;;;;;;;20.05;9.60;;;14.60;83.10;;;;;;5093644;28;20043;-85
2024/01/25 18:08:56;;;;;;;28.73;10.65;;;14.60;82.90;;;;;;5087495;28;20037;-78
2024/01/25 18:11:22;;;;;;;30.30;11.10;;;14.60;82.70;;;;;;5074709;28;20115;-80
2024/01/25 18:13:48;;;;;;;44.50;26.65;;;14.50;82.60;;;;;;5074706;28;20035;-77
2024/01/25 18:16:14;;;;;;;21.55;9.95;;;14.50;82.30;;;;;;5074654;28;20041;-81
2024/01/25 18:18:40;;;;;;;23.63;9.90;;;14.50;82.00;;;;;;5074601;28;20171;-75
2024/01/25 18:21:05;;;;;;;25.42;9.32;;;14.50;82.00;;;;;;5079371;28;20135;-78
2024/01/25 18:23:36;;;;;;;28.42;12.00;;;14.40;81.90;;;;;;5087794;28;20033;-75
2024/01/25 21:10:58;;;;;;;47.40;23.20;;;12.80;88.20;;;;;;5088453;28;20043;-89
2024/01/25 21:13:24;;;;;;;41.30;22.10;;;12.80;88.40;;;;;;5093135;28;20036;-89
2024/01/25 21:15:50;;;;;;;38.28;21.48;;;12.70;88.60;;;;;;5090070;28;20459;-88
2024/01/25 21:18:15;;;;;;;39.38;21.67;;;12.70;88.50;;;;;;5097669;28;20036;-87
2024/01/25 21:20:41;;;;;;;34.75;19.58;;;12.70;88.60;;;;;;5100571;28;20032;-88
2024/01/25 21:23:07;;;;;;;46.97;22.48;;;12.70;88.40;;;;;;5097757;28;20032;-90
2024/01/25 21:25:32;;;;;;;36.78;20.17;;;12.70;88.70;;;;;;5102654;28;20016;-89
2024/01/25 21:28:00;;;;;;;43.33;20.75;;;12.70;88.60;;;;;;5085494;28;20501;-89
2024/01/25 21:30:26;;;;;;;34.35;20.33;;;12.70;88.40;;;;;;5094678;28;20033;-89
2024/01/25 21:32:51;;;;;;;39.28;20.13;;;12.70;88.10;;;;;;5084638;28;20536;-89
2024/01/25 21:35:17;;;;;;;40.08;20.75;;;12.60;88.30;;;;;;5099247;28;20024;-90
2024/01/25 21:37:43;;;;;;;39.97;21.80;;;12.60;87.90;;;;;;5101295;28;20040;-89
2024/01/25 21:40:08;;;;;;;44.33;21.50;;;12.60;87.90;;;;;;5099520;28;20164;-90
2024/01/25 21:42:37;;;;;;;37.05;21.20;;;12.60;88.00;;;;;;5108631;28;20032;-89
2024/01/25 21:45:06;;;;;;;33.85;20.63;;;12.60;87.70;;;;;;5102924;28;20076;-88
2024/01/25 21:47:32;;;;;;;36.25;21.08;;;12.60;87.60;;;;;;5093135;28;20043;-91
2024/01/25 21:49:58;;;;;;;36.92;22.25;;;12.60;88.20;;;;;;5102793;28;20024;-90
2024/01/25 21:52:24;;;;;;;37.60;22.63;;;12.60;87.50;;;;;;5103247;28;20481;-89
2024/01/25 21:54:50;;;;;;;36.90;21.90;;;12.60;87.40;;;;;;5108080;28;20035;-89
2024/01/25 21:57:17;;;;;;;37.05;22.38;;;12.60;87.20;;;;;;5094682;28;20040;-88
2024/01/25 21:59:43;;;;;;;37.60;21.08;;;12.60;87.30;;;;;;5090901;28;20055;-87
2024/01/25 22:02:09;;;;;;;36.28;22.70;;;12.50;87.20;;;;;;5099296;28;20028;-89
2024/01/25 22:04:34;;;;;;;37.72;22.45;;;12.50;87.20;;;;;;5098615;28;20110;-89
2024/01/25 22:07:00;;;;;;;32.55;21.10;;;12.50;87.00;;;;;;5098379;28;20036;-89
2024/01/25 22:09:26;;;;;;;31.83;21.02;;;12.50;87.00;;;;;;5080214;28;20378;-89
2024/01/25 22:11:51;;;;;;;36.30;22.15;;;12.40;86.90;;;;;;5080106;28;20121;-88
2024/01/25 22:14:17;;;;;;;35.50;21.55;;;12.30;86.90;;;;;;5099427;28;20056;-87
2024/01/25 22:16:43;;;;;;;33.65;22.17;;;12.30;87.20;;;;;;5103927;28;20050;-88
2024/01/25 22:19:08;;;;;;;35.58;22.52;;;12.30;87.20;;;;;;5092738;28;20036;-88
2024/01/25 22:21:34;;;;;;;34.97;22.30;;;12.20;87.10;;;;;;5104061;28;20435;-89
2024/01/25 22:24:00;;;;;;;36.10;22.77;;;12.20;87.30;;;;;;5099334;28;20039;-90
2024/01/25 22:26:25;;;;;;;36.92;23.10;;;12.20;87.40;;;;;;5080118;28;20472;-89
2024/01/25 22:28:51;;;;;;;37.58;22.60;;;12.20;87.50;;;;;;5097385;28;20043;-88
2024/01/25 22:31:17;;;;;;;37.30;23.45;;;12.20;87.60;;;;;;5091181;28;20444;-88
2024/01/25 22:33:42;;;;;;;34.80;21.83;;;12.10;87.70;;;;;;5088341;28;20481;-90
2024/01/25 22:36:10;;;;;;;38.88;22.45;;;12.10;87.60;;;;;;5099520;28;20038;-89
2024/01/25 22:38:36;;;;;;;38.70;23.88;;;12.10;87.80;;;;;;5099847;28;20091;-90
2024/01/25 22:41:01;;;;;;;38.20;23.52;;;12.10;87.60;;;;;;5101326;28;20059;-89
2024/01/25 22:43:27;;;;;;;41.05;23.08;;;12.10;87.80;;;;;;5102238;28;20029;-89
2024/01/25 22:45:53;;;;;;;35.40;22.77;;;12.00;87.80;;;;;;5111338;28;20476;-88
2024/01/25 22:48:20;;;;;;;38.13;22.70;;;12.00;87.50;;;;;;5087211;28;20128;-89
2024/01/25 22:50:45;;;;;;;36.33;23.67;;;12.00;87.80;;;;;;5099598;28;20028;-90
2024/01/25 22:53:11;;;;;;;39.03;23.30;;;12.00;87.80;;;;;;5099372;28;20036;-88
2024/01/25 22:55:37;;;;;;;40.17;23.60;;;11.90;88.00;;;;;;5096888;28;20036;-89
2024/01/25 22:58:03;;;;;;;38.72;23.33;;;11.90;88.00;;;;;;5098377;28;20064;-88
2024/01/25 23:00:31;;;;;;;40.65;24.15;;;11.90;88.10;;;;;;5099923;28;20040;-89
2024/01/25 23:02:57;;;;;;;38.80;23.30;;;11.80;88.00;;;;;;5091717;28;20063;-89
2024/01/25 23:05:23;;;;;;;37.67;23.25;;;11.80;88.30;;;;;;5063824;28;20060;-88
2024/01/25 23:07:49;;;;;;;36.17;22.95;;;11.70;88.30;;;;;;5079296;28;20052;-89
2024/01/25 23:10:18;;;;;;;38.60;23.42;;;11.70;88.40;;;;;;5078963;28;20088;-89
2024/01/25 23:12:48;;;;;;;39.05;23.02;;;11.70;88.50;;;;;;5077376;28;20434;-90
2024/01/25 23:15:15;;;;;;;34.42;21.92;;;11.60;88.70;;;;;;5075555;28;20039;-88
2024/01/25 23:17:40;;;;;;;40.85;23.60;;;11.60;88.60;;;;;;5075421;28;20127;-89
2024/01/25 23:20:07;;;;;;;40.63;23.20;;;11.60;88.70;;;;;;5076773;28;20137;-89
2024/01/25 23:22:34;;;;;;;37.85;21.80;;;11.60;88.80;;;;;;5076186;28;20124;-89
2024/01/25 23:25:01;;;;;;;36.15;23.00;;;11.70;88.80;;;;;;5075868;28;20108;-88
2024/01/25 23:27:27;;;;;;;38.00;23.15;;;11.70;88.40;;;;;;5078137;28;20032;-88
2024/01/25 23:29:52;;;;;;;43.63;23.67;;;11.80;88.30;;;;;;5079304;28;20076;-89
2024/01/25 23:32:20;;;;;;;43.15;24.10;;;11.70;88.30;;;;;;5078304;28;20050;-90
2024/01/25 23:34:46;;;;;;;36.20;22.50;;;11.70;88.40;;;;;;5077787;28;20029;-88
2024/01/25 23:37:12;;;;;;;38.40;22.92;;;11.80;88.30;;;;;;5089466;28;20289;-88
2024/01/25 23:39:37;;;;;;;38.67;24.00;;;11.90;88.20;;;;;;5091720;28;20036;-87
2024/01/25 23:42:03;;;;;;;36.28;25.10;;;11.90;88.00;;;;;;5083635;28;20041;-88
2024/01/25 23:44:29;;;;;;;41.28;23.05;;;11.90;87.60;;;;;;5076680;28;20037;-88
2024/01/25 23:46:55;;;;;;;41.92;23.95;;;11.90;87.90;;;;;;5077031;28;20028;-88
2024/01/25 23:49:20;;;;;;;36.83;24.27;;;11.90;88.00;;;;;;5060594;28;20139;-89
2024/01/25 23:51:46;;;;;;;39.70;23.90;;;12.00;87.90;;;;;;5085880;28;20402;-89
2024/01/25 23:54:13;;;;;;;41.88;24.20;;;11.90;87.80;;;;;;5081154;28;20078;-87
2024/01/25 23:56:39;;;;;;;42.05;24.30;;;12.00;87.80;;;;;;5085810;28;20041;-89
2024/01/25 23:59:06;;;;;;;37.53;25.33;;;12.00;87.60;;;;;;5068553;28;20025;-87
